Time;durP1;ratioP1;P1;durP2;ratioP2;P2;SDS_P1;SDS_P2;PMS_P1;PMS_P2;Temp;Humidity;BMP_temperature;BMP_pressure;BME280_temperature;BME280_humidity;BME280_pressure;Samples;Min_cycle;Max_cycle;Signal;HPM_P1;HPM_P2
2023/05/07 00:00:03;;;;;;;47.20;19.60;;;;;;;;;;10285969;28;20073;-80
2023/05/07 00:05:04;;;;;;;35.87;17.33;;;;;;;;;;10285849;28;20505;-81
2023/05/07 00:10:06;;;;;;;40.03;18.47;;;;;;;;;;10284960;28;20043;-81
2023/05/07 00:15:10;;;;;;;45.57;19.73;;;;;;;;;;10285122;28;20034;-80
2023/05/07 00:20:11;;;;;;;38.53;18.47;;;;;;;;;;10285264;28;20046;-81
2023/05/07 00:25:12;;;;;;;34.30;17.07;;;;;;;;;;10277345;28;20038;-81
2023/05/07 00:30:13;;;;;;;40.57;19.27;;;;;;;;;;10284131;28;20093;-81
2023/05/07 00:35:14;;;;;;;35.33;17.50;;;;;;;;;;10283090;28;20102;-80
2023/05/07 00:40:15;;;;;;;29.37;15.73;;;;;;;;;;10285156;28;20074;-81
2023/05/07 00:45:19;;;;;;;32.97;17.23;;;;;;;;;;10284345;28;20038;-80
2023/05/07 00:50:20;;;;;;;28.73;15.50;;;;;;;;;;10284175;28;20455;-81
2023/05/07 00:55:22;;;;;;;32.23;16.27;;;;;;;;;;10283952;28;20067;-80
2023/05/07 01:00:31;;;;;;;30.07;15.73;;;;;;;;;;10283544;28;20055;-80
2023/05/07 01:05:32;;;;;;;31.30;15.53;;;;;;;;;;10283390;28;20027;-80
2023/05/07 01:10:33;;;;;;;28.53;16.07;;;;;;;;;;10282869;28;20043;-80
2023/05/07 01:15:34;;;;;;;26.07;13.77;;;;;;;;;;10283210;28;20043;-81
2023/05/07 01:20:35;;;;;;;27.27;13.13;;;;;;;;;;10282730;28;20050;-81
2023/05/07 01:25:38;;;;;;;23.57;11.97;;;;;;;;;;10282766;28;20122;-80
2023/05/07 01:30:42;;;;;;;19.17;10.17;;;;;;;;;;10265114;28;20053;-80
2023/05/07 01:35:45;;;;;;;20.43;10.40;;;;;;;;;;10282000;28;20085;-80
2023/05/07 01:40:55;;;;;;;14.53;8.43;;;;;;;;;;10282614;28;20035;-81
2023/05/07 01:45:58;;;;;;;13.17;7.67;;;;;;;;;;10281359;28;20038;-81
2023/05/07 01:50:58;;;;;;;14.47;7.57;;;;;;;;;;10264341;28;20050;-80
2023/05/07 01:55:59;;;;;;;13.40;7.60;;;;;;;;;;10281668;28;20483;-81
2023/05/07 02:01:01;;;;;;;17.10;9.00;;;;;;;;;;10279912;28;20562;-81
2023/05/07 02:06:06;;;;;;;14.07;7.80;;;;;;;;;;10279564;28;20027;-80
2023/05/07 02:11:07;;;;;;;14.83;8.33;;;;;;;;;;10279072;28;20449;-80
2023/05/07 02:16:10;;;;;;;13.97;6.60;;;;;;;;;;10279667;28;20030;-81
2023/05/07 02:21:11;;;;;;;12.07;6.17;;;;;;;;;;10279787;28;20031;-81
2023/05/07 02:26:14;;;;;;;11.87;6.77;;;;;;;;;;10278702;28;20042;-81
2023/05/07 02:31:15;;;;;;;13.30;6.40;;;;;;;;;;10261609;28;20038;-81
2023/05/07 02:36:16;;;;;;;11.63;6.63;;;;;;;;;;10278240;28;20157;-81
2023/05/07 02:41:21;;;;;;;10.03;5.80;;;;;;;;;;10279423;28;20090;-80
2023/05/07 02:46:22;;;;;;;10.98;6.63;;;;;;;;;;10278988;28;20034;-81
2023/05/07 02:51:25;;;;;;;11.30;5.93;;;;;;;;;;10279041;28;20046;-81
2023/05/07 02:56:27;;;;;;;10.43;5.90;;;;;;;;;;10278359;28;20042;-81
2023/05/07 03:01:28;;;;;;;11.43;6.43;;;;;;;;;;10248380;28;1098873;-81
2023/05/07 03:06:29;;;;;;;12.37;6.47;;;;;;;;;;10287314;28;20663;-80
2023/05/07 03:11:30;;;;;;;8.57;4.90;;;;;;;;;;10269634;28;20082;-81
2023/05/07 03:16:31;;;;;;;10.27;5.70;;;;;;;;;;10270129;28;20542;-81
2023/05/07 03:21:33;;;;;;;11.23;6.20;;;;;;;;;;10269418;28;20065;-80
2023/05/07 03:26:34;;;;;;;12.90;5.70;;;;;;;;;;10287241;28;20086;-81
2023/05/07 03:31:35;;;;;;;9.47;5.30;;;;;;;;;;10286981;28;20546;-81
2023/05/07 03:36:36;;;;;;;9.87;5.27;;;;;;;;;;10286681;28;20054;-81
2023/05/07 03:41:37;;;;;;;11.20;6.10;;;;;;;;;;10268983;28;20383;-81
2023/05/07 03:46:38;;;;;;;11.03;6.03;;;;;;;;;;10285509;28;20037;-81
2023/05/07 03:51:39;;;;;;;11.17;5.97;;;;;;;;;;10286351;28;20059;-78
2023/05/07 03:56:40;;;;;;;13.10;6.37;;;;;;;;;;10285944;28;20038;-81
2023/05/07 04:01:43;;;;;;;12.13;6.00;;;;;;;;;;10285562;28;20054;-81
2023/05/07 04:06:46;;;;;;;13.57;6.03;;;;;;;;;;10285839;28;20372;-81
2023/05/07 04:11:49;;;;;;;11.73;5.93;;;;;;;;;;10267448;28;20509;-81
2023/05/07 04:16:52;;;;;;;9.23;5.17;;;;;;;;;;10285381;28;20562;-81
2023/05/07 04:21:55;;;;;;;11.63;5.93;;;;;;;;;;10284719;28;20105;-81
2023/05/07 04:26:58;;;;;;;11.27;5.80;;;;;;;;;;10284469;28;20054;-81
2023/05/07 04:31:59;;;;;;;8.10;4.70;;;;;;;;;;10266715;28;20042;-81
2023/05/07 04:37:00;;;;;;;8.97;4.87;;;;;;;;;;10283920;28;20031;-81
2023/05/07 04:42:01;;;;;;;8.10;4.40;;;;;;;;;;10284331;28;20554;-81
2023/05/07 04:47:02;;;;;;;10.70;5.53;;;;;;;;;;10284765;28;20170;-80
2023/05/07 04:52:03;;;;;;;9.27;5.53;;;;;;;;;;10284517;28;20026;-81
2023/05/07 04:57:08;;;;;;;12.43;5.20;;;;;;;;;;10283478;28;20026;-81
2023/05/07 05:02:10;;;;;;;8.80;5.03;;;;;;;;;;10265633;28;20493;-81
2023/05/07 05:07:11;;;;;;;12.27;5.43;;;;;;;;;;10281822;28;20121;-80
2023/05/07 05:12:12;;;;;;;8.90;5.33;;;;;;;;;;10279351;28;20037;-81
2023/05/07 05:17:13;;;;;;;8.53;5.23;;;;;;;;;;10281282;28;20587;-81
2023/05/07 05:22:15;;;;;;;7.93;5.10;;;;;;;;;;10282246;28;20467;-81
2023/05/07 05:27:16;;;;;;;10.20;6.00;;;;;;;;;;10282037;28;20026;-81
2023/05/07 05:32:16;;;;;;;13.27;7.40;;;;;;;;;;10282299;28;20026;-80
2023/05/07 05:37:17;;;;;;;9.13;5.70;;;;;;;;;;10281704;28;20031;-81
2023/05/07 05:42:18;;;;;;;10.10;6.10;;;;;;;;;;10281607;28;20183;-81
2023/05/07 05:47:19;;;;;;;10.93;6.17;;;;;;;;;;10281993;28;20046;-81
2023/05/07 05:52:23;;;;;;;12.30;5.97;;;;;;;;;;10281126;28;20483;-81
2023/05/07 05:57:24;;;;;;;12.77;6.50;;;;;;;;;;10281154;28;20487;-81
2023/05/07 06:02:25;;;;;;;14.57;6.83;;;;;;;;;;10281357;28;20037;-81
2023/05/07 06:07:26;;;;;;;11.23;5.80;;;;;;;;;;10278809;28;20041;-79
2023/05/07 06:12:27;;;;;;;8.50;5.20;;;;;;;;;;10280689;28;20034;-81
2023/05/07 06:17:28;;;;;;;8.97;5.77;;;;;;;;;;10278863;28;20475;-81
2023/05/07 06:22:29;;;;;;;7.87;5.10;;;;;;;;;;10280743;28;20031;-80
2023/05/07 06:27:30;;;;;;;11.53;5.40;;;;;;;;;;10280603;28;20042;-81
2023/05/07 06:32:31;;;;;;;8.77;5.77;;;;;;;;;;10262794;28;20039;-81
2023/05/07 06:37:32;;;;;;;7.13;4.10;;;;;;;;;;10288649;28;20058;-80
2023/05/07 06:42:33;;;;;;;4.87;3.30;;;;;;;;;;10288328;28;20038;-80
2023/05/07 06:47:34;;;;;;;8.17;3.60;;;;;;;;;;10289464;28;20034;-81
2023/05/07 06:52:35;;;;;;;5.53;3.20;;;;;;;;;;10287802;28;20031;-80
2023/05/07 06:57:36;;;;;;;4.60;3.03;;;;;;;;;;10287764;28;20034;-80
2023/05/07 07:02:37;;;;;;;4.07;3.63;;;;;;;;;;10286908;28;20491;-80
2023/05/07 07:07:38;;;;;;;4.37;2.40;;;;;;;;;;10287659;28;20139;-80
2023/05/07 07:12:39;;;;;;;5.37;3.30;;;;;;;;;;10286791;28;20108;-79
2023/05/07 07:17:40;;;;;;;4.23;2.83;;;;;;;;;;10286627;28;20042;-79
2023/05/07 07:22:41;;;;;;;4.73;3.23;;;;;;;;;;10286705;28;20431;-79
2023/05/07 07:27:42;;;;;;;4.43;3.03;;;;;;;;;;10268385;28;20487;-79
2023/05/07 07:32:43;;;;;;;5.50;4.17;;;;;;;;;;10287430;28;20045;-79
2023/05/07 07:37:44;;;;;;;5.30;3.97;;;;;;;;;;10285274;28;20046;-79
2023/05/07 07:42:45;;;;;;;5.33;3.60;;;;;;;;;;10285384;28;20526;-80
2023/05/07 07:47:46;;;;;;;6.20;4.30;;;;;;;;;;10285585;28;20158;-78
2023/05/07 07:52:47;;;;;;;7.50;4.73;;;;;;;;;;10284544;28;20050;-81
2023/05/07 07:57:48;;;;;;;9.27;4.93;;;;;;;;;;10285047;28;20039;-81
2023/05/07 08:02:49;;;;;;;8.13;5.50;;;;;;;;;;10285034;28;20101;-81
2023/05/07 08:07:51;;;;;;;10.33;5.53;;;;;;;;;;10285246;28;20042;-81
2023/05/07 08:12:52;;;;;;;10.20;6.63;;;;;;;;;;10285393;28;20046;-81
2023/05/07 08:17:53;;;;;;;7.77;5.40;;;;;;;;;;10285484;28;20036;-81
2023/05/07 08:22:54;;;;;;;8.77;5.50;;;;;;;;;;10285747;28;20400;-81
2023/05/07 08:27:55;;;;;;;10.70;6.90;;;;;;;;;;10284213;28;20175;-81
2023/05/07 08:32:56;;;;;;;10.20;7.17;;;;;;;;;;10284815;28;20092;-81
2023/05/07 08:37:57;;;;;;;12.53;7.97;;;;;;;;;;10284861;28;20067;-81
2023/05/07 08:42:59;;;;;;;9.03;7.27;;;;;;;;;;10283830;28;20058;-81
2023/05/07 08:48:02;;;;;;;11.27;7.43;;;;;;;;;;10274982;28;20034;-81
2023/05/07 08:53:08;;;;;;;11.23;7.47;;;;;;;;;;10283322;28;20039;-81
2023/05/07 08:58:09;;;;;;;9.17;6.93;;;;;;;;;;10281561;28;20143;-82
2023/05/07 09:03:13;;;;;;;10.03;7.00;;;;;;;;;;10282682;28;20398;-81
2023/05/07 09:08:16;;;;;;;13.60;9.20;;;;;;;;;;10265733;28;20042;-80
2023/05/07 09:13:17;;;;;;;12.50;8.60;;;;;;;;;;10283138;28;20046;-81
2023/05/07 09:18:18;;;;;;;11.00;8.20;;;;;;;;;;10282459;28;20030;-81
2023/05/07 09:23:20;;;;;;;12.60;8.10;;;;;;;;;;10275041;28;20394;-80
2023/05/07 09:28:21;;;;;;;13.80;9.33;;;;;;;;;;10277578;28;20555;-81
2023/05/07 09:33:26;;;;;;;13.63;9.37;;;;;;;;;;10282547;28;20165;-81
2023/05/07 09:38:30;;;;;;;14.53;8.90;;;;;;;;;;10281873;28;20038;-81
2023/05/07 09:43:39;;;;;;;13.70;9.53;;;;;;;;;;10281463;28;20042;-81
2023/05/07 09:48:42;;;;;;;13.40;9.67;;;;;;;;;;10280795;28;20038;-81
2023/05/07 09:53:45;;;;;;;12.33;9.00;;;;;;;;;;10263053;28;20045;-82
2023/05/07 09:58:49;;;;;;;11.27;8.10;;;;;;;;;;10255555;28;20102;-82
2023/05/07 10:03:50;;;;;;;10.57;7.80;;;;;;;;;;10280802;28;20454;-82
2023/05/07 10:08:52;;;;;;;10.50;7.37;;;;;;;;;;10281406;28;20133;-82
2023/05/07 10:13:53;;;;;;;10.97;8.00;;;;;;;;;;10281210;28;20031;-82
2023/05/07 10:18:55;;;;;;;10.60;7.83;;;;;;;;;;10280617;28;20035;-82
2023/05/07 10:24:01;;;;;;;13.57;9.33;;;;;;;;;;10281025;28;20034;-82
2023/05/07 10:29:11;;;;;;;12.77;9.97;;;;;;;;;;10281274;28;20039;-82
2023/05/07 10:34:15;;;;;;;13.20;9.30;;;;;;;;;;10280307;28;20039;-82
2023/05/07 10:39:22;;;;;;;12.23;8.80;;;;;;;;;;10275182;28;20046;-82
2023/05/07 10:44:32;;;;;;;13.60;8.47;;;;;;;;;;10249120;28;20085;-82
2023/05/07 10:49:33;;;;;;;11.87;8.23;;;;;;;;;;10278732;28;20053;-81
2023/05/07 10:54:34;;;;;;;10.53;8.37;;;;;;;;;;10257996;28;20035;-83
2023/05/07 10:59:41;;;;;;;13.07;9.03;;;;;;;;;;10277703;28;20051;-82
2023/05/07 11:04:42;;;;;;;11.97;8.53;;;;;;;;;;10276829;28;20047;-81
2023/05/07 11:09:58;;;;;;;10.37;8.07;;;;;;;;;;10277747;28;20105;-83
2023/05/07 11:14:59;;;;;;;13.30;9.32;;;;;;;;;;10273141;28;20037;-83
2023/05/07 11:20:00;;;;;;;13.47;9.63;;;;;;;;;;10282249;28;20037;-81
2023/05/07 11:25:02;;;;;;;17.07;10.90;;;;;;;;;;10267309;28;20050;-82
2023/05/07 11:30:03;;;;;;;14.47;9.93;;;;;;;;;;10283552;28;20483;-82
2023/05/07 11:35:04;;;;;;;10.90;7.83;;;;;;;;;;10286651;28;20141;-82
2023/05/07 11:40:06;;;;;;;10.73;7.87;;;;;;;;;;10264512;28;20719;-81
2023/05/07 11:45:08;;;;;;;8.73;6.93;;;;;;;;;;10284422;28;20648;-81
2023/05/07 11:50:10;;;;;;;11.97;7.87;;;;;;;;;;10283105;28;20070;-82
2023/05/07 11:55:13;;;;;;;10.37;7.87;;;;;;;;;;10285055;28;20036;-82
2023/05/07 12:00:16;;;;;;;9.87;7.50;;;;;;;;;;10282699;28;20419;-82
2023/05/07 12:05:19;;;;;;;10.73;6.80;;;;;;;;;;10283898;28;20062;-81
2023/05/07 12:10:24;;;;;;;7.57;5.77;;;;;;;;;;10284542;28;20054;-82
2023/05/07 12:15:25;;;;;;;11.57;7.17;;;;;;;;;;10282731;28;20023;-82
2023/05/07 12:20:26;;;;;;;8.60;5.50;;;;;;;;;;10284747;28;20035;-81
2023/05/07 12:25:32;;;;;;;7.43;5.20;;;;;;;;;;10280354;28;20506;-82
2023/05/07 12:30:37;;;;;;;11.27;5.35;;;;;;;;;;10263959;28;20055;-81
2023/05/07 12:35:39;;;;;;;6.30;4.50;;;;;;;;;;10276828;28;20031;-82
2023/05/07 12:40:41;;;;;;;6.90;3.83;;;;;;;;;;10265571;28;20371;-81
2023/05/07 12:45:43;;;;;;;5.77;4.10;;;;;;;;;;10281301;28;20141;-81
2023/05/07 12:50:46;;;;;;;5.63;3.30;;;;;;;;;;10263192;28;20043;-80
2023/05/07 12:55:48;;;;;;;6.30;4.53;;;;;;;;;;10281986;28;20086;-80
2023/05/07 13:00:52;;;;;;;5.63;4.23;;;;;;;;;;10246427;28;20055;-79
2023/05/07 13:05:53;;;;;;;7.10;4.70;;;;;;;;;;10243281;29;20028;-80
2023/05/07 13:10:54;;;;;;;5.40;3.83;;;;;;;;;;10241988;29;20039;-80
2023/05/07 13:15:55;;;;;;;5.63;4.10;;;;;;;;;;10243567;28;20039;-80
2023/05/07 13:20:56;;;;;;;7.30;4.30;;;;;;;;;;10229748;28;20427;-81
2023/05/07 13:25:57;;;;;;;7.17;4.77;;;;;;;;;;10238602;28;20815;-81
2023/05/07 13:30:58;;;;;;;12.40;5.37;;;;;;;;;;10226017;28;20035;-82
2023/05/07 13:36:00;;;;;;;6.80;4.17;;;;;;;;;;10242093;29;20039;-82
2023/05/07 13:41:01;;;;;;;11.07;6.10;;;;;;;;;;10228816;28;20031;-81
2023/05/07 13:46:02;;;;;;;28.17;19.50;;;;;;;;;;10226789;28;20031;-83
2023/05/07 13:51:03;;;;;;;9.87;6.50;;;;;;;;;;10231698;28;20459;-83
2023/05/07 13:56:04;;;;;;;9.77;6.87;;;;;;;;;;10240434;29;20468;-83
2023/05/07 14:01:10;;;;;;;31.37;20.53;;;;;;;;;;10248513;28;20094;-84
2023/05/07 14:06:11;;;;;;;182.10;107.28;;;;;;;;;;10245273;28;20024;-83
2023/05/07 14:11:12;;;;;;;330.53;216.77;;;;;;;;;;10240881;28;20765;-84
2023/05/07 14:16:13;;;;;;;460.47;385.77;;;;;;;;;;10220019;29;20468;-83
2023/05/07 14:21:14;;;;;;;591.37;396.17;;;;;;;;;;10241449;29;20038;-84
2023/05/07 14:26:15;;;;;;;354.30;211.77;;;;;;;;;;10224254;29;20066;-83
2023/05/07 14:31:16;;;;;;;256.10;145.13;;;;;;;;;;10244224;28;20039;-83
2023/05/07 14:36:22;;;;;;;397.37;277.53;;;;;;;;;;10241941;28;20043;-83
2023/05/07 14:41:29;;;;;;;185.43;112.20;;;;;;;;;;10240641;28;20023;-83
2023/05/07 14:46:30;;;;;;;41.20;23.43;;;;;;;;;;10251726;28;20154;-83
2023/05/07 14:51:32;;;;;;;100.93;58.57;;;;;;;;;;10224472;28;20241;-83
2023/05/07 14:56:36;;;;;;;278.30;172.20;;;;;;;;;;10229032;29;20054;-83
2023/05/07 15:01:37;;;;;;;131.47;78.77;;;;;;;;;;10280546;28;20066;-83
2023/05/07 15:06:38;;;;;;;81.90;52.30;;;;;;;;;;10270353;28;20096;-84
2023/05/07 15:11:43;;;;;;;30.03;21.97;;;;;;;;;;10288320;28;20367;-83
2023/05/07 15:16:45;;;;;;;12.45;9.68;;;;;;;;;;10287616;28;20050;-84
2023/05/07 15:21:47;;;;;;;61.73;55.10;;;;;;;;;;10287155;28;20030;-81
2023/05/07 15:26:48;;;;;;;37.80;31.03;;;;;;;;;;10268803;28;20042;-82
2023/05/07 15:31:49;;;;;;;13.00;9.77;;;;;;;;;;10285253;28;20054;-82
2023/05/07 15:36:57;;;;;;;14.37;12.30;;;;;;;;;;10286498;28;20122;-82
2023/05/07 15:41:58;;;;;;;12.20;8.73;;;;;;;;;;10284321;28;20038;-83
2023/05/07 15:46:59;;;;;;;12.40;8.40;;;;;;;;;;10283958;28;20027;-81
2023/05/07 15:52:01;;;;;;;11.50;7.63;;;;;;;;;;10285334;28;20047;-82
2023/05/07 15:57:03;;;;;;;15.13;8.83;;;;;;;;;;10285419;28;20041;-81
2023/05/07 16:02:04;;;;;;;11.30;7.97;;;;;;;;;;10255813;28;20046;-81
2023/05/07 16:07:06;;;;;;;11.77;7.40;;;;;;;;;;10247023;28;20407;-81
2023/05/07 16:12:07;;;;;;;14.33;8.70;;;;;;;;;;10245070;28;20045;-79
2023/05/07 16:17:08;;;;;;;18.17;9.80;;;;;;;;;;10245955;28;20034;-80
2023/05/07 16:22:09;;;;;;;20.40;9.90;;;;;;;;;;10248326;28;20090;-83
2023/05/07 16:27:10;;;;;;;12.73;8.03;;;;;;;;;;10254914;28;21190;-82
2023/05/07 16:32:11;;;;;;;14.23;8.13;;;;;;;;;;10247324;28;20043;-80
2023/05/07 16:37:13;;;;;;;17.63;8.87;;;;;;;;;;10245008;28;20043;-81
2023/05/07 16:42:14;;;;;;;23.77;11.97;;;;;;;;;;10246460;28;20118;-81
2023/05/07 16:47:18;;;;;;;11.23;7.13;;;;;;;;;;10253228;28;20090;-81
2023/05/07 16:52:20;;;;;;;14.20;8.57;;;;;;;;;;10241803;29;20031;-80
2023/05/07 16:57:23;;;;;;;13.83;8.67;;;;;;;;;;10252644;28;20065;-80
2023/05/07 17:02:26;;;;;;;12.13;7.50;;;;;;;;;;10281740;28;20039;-80
2023/05/07 17:07:29;;;;;;;11.70;7.83;;;;;;;;;;10270357;28;20042;-80
2023/05/07 17:12:30;;;;;;;11.40;6.53;;;;;;;;;;10281049;28;20494;-80
2023/05/07 17:17:37;;;;;;;9.63;7.07;;;;;;;;;;10275349;28;20079;-80
2023/05/07 17:22:38;;;;;;;10.97;6.37;;;;;;;;;;10286124;28;20042;-80
2023/05/07 17:27:39;;;;;;;10.83;6.83;;;;;;;;;;10285377;28;20034;-80
2023/05/07 17:32:40;;;;;;;10.33;6.90;;;;;;;;;;10281927;28;20503;-80
2023/05/07 17:37:51;;;;;;;10.67;6.17;;;;;;;;;;10282325;28;20031;-81
2023/05/07 17:42:52;;;;;;;11.47;6.60;;;;;;;;;;10284291;28;20026;-80
2023/05/07 17:47:53;;;;;;;11.67;7.27;;;;;;;;;;10272859;28;20035;-80
2023/05/07 17:52:53;;;;;;;10.77;7.07;;;;;;;;;;10280516;28;20046;-80
2023/05/07 17:57:55;;;;;;;14.17;8.27;;;;;;;;;;10283458;28;20054;-80
2023/05/07 18:02:58;;;;;;;10.87;6.97;;;;;;;;;;10261781;28;20030;-80
2023/05/07 18:07:59;;;;;;;12.43;7.23;;;;;;;;;;10281426;28;20023;-79
2023/05/07 18:13:00;;;;;;;11.27;6.97;;;;;;;;;;10280172;28;20047;-80
2023/05/07 18:18:01;;;;;;;11.13;6.93;;;;;;;;;;10267348;28;20026;-81
2023/05/07 18:23:03;;;;;;;13.00;7.90;;;;;;;;;;10276556;28;20039;-81
2023/05/07 18:28:04;;;;;;;9.67;6.77;;;;;;;;;;10281832;28;20038;-80
2023/05/07 18:33:06;;;;;;;12.37;8.47;;;;;;;;;;10287340;28;20113;-80
2023/05/07 18:38:07;;;;;;;15.73;9.20;;;;;;;;;;10289656;28;20033;-80
2023/05/07 18:43:11;;;;;;;14.90;7.53;;;;;;;;;;10270034;28;20039;-80
2023/05/07 18:48:15;;;;;;;12.07;7.27;;;;;;;;;;10284831;28;20038;-80
2023/05/07 18:53:16;;;;;;;13.23;6.90;;;;;;;;;;10284836;28;20031;-81
2023/05/07 18:58:21;;;;;;;12.27;6.90;;;;;;;;;;10278208;28;20058;-80
2023/05/07 19:03:22;;;;;;;11.77;6.82;;;;;;;;;;10288173;28;20077;-81
2023/05/07 19:08:25;;;;;;;13.33;7.27;;;;;;;;;;10285313;28;20105;-82
2023/05/07 19:13:26;;;;;;;10.47;6.03;;;;;;;;;;10287543;28;20558;-80
2023/05/07 19:18:30;;;;;;;9.13;6.57;;;;;;;;;;10276443;28;20031;-83
2023/05/07 19:23:40;;;;;;;11.20;6.77;;;;;;;;;;10286868;28;20094;-82
2023/05/07 19:28:41;;;;;;;12.20;6.27;;;;;;;;;;10283913;28;20045;-81
2023/05/07 19:33:42;;;;;;;14.30;7.87;;;;;;;;;;10286954;28;20528;-82
2023/05/07 19:38:44;;;;;;;14.17;6.67;;;;;;;;;;10267112;28;20038;-81
2023/05/07 19:43:44;;;;;;;12.77;6.30;;;;;;;;;;10284764;28;20759;-82
2023/05/07 19:48:47;;;;;;;10.37;5.00;;;;;;;;;;10279668;28;20050;-81
2023/05/07 19:53:50;;;;;;;6.97;4.77;;;;;;;;;;10285855;28;20046;-81
2023/05/07 19:58:51;;;;;;;5.87;4.50;;;;;;;;;;10285845;28;20418;-81
2023/05/07 20:03:52;;;;;;;7.47;4.43;;;;;;;;;;10269263;28;20034;-81
2023/05/07 20:08:53;;;;;;;6.47;4.57;;;;;;;;;;10272794;28;20046;-81
2023/05/07 20:13:54;;;;;;;10.20;4.50;;;;;;;;;;10284775;28;20049;-82
2023/05/07 20:18:55;;;;;;;8.13;4.77;;;;;;;;;;10281857;28;20517;-82
2023/05/07 20:23:57;;;;;;;15.57;5.33;;;;;;;;;;10285183;28;20600;-81
2023/05/07 20:28:58;;;;;;;7.37;4.80;;;;;;;;;;10264239;28;20043;-82
2023/05/07 20:33:59;;;;;;;9.90;5.17;;;;;;;;;;10283929;28;20448;-82
2023/05/07 20:39:00;;;;;;;9.17;5.17;;;;;;;;;;10283478;28;20086;-82
2023/05/07 20:44:01;;;;;;;7.90;5.10;;;;;;;;;;10283545;28;20507;-81
2023/05/07 20:49:02;;;;;;;8.07;5.10;;;;;;;;;;10284171;28;20113;-81
2023/05/07 20:54:03;;;;;;;9.97;5.73;;;;;;;;;;10280321;28;20034;-83
2023/05/07 20:59:04;;;;;;;9.47;6.23;;;;;;;;;;10283297;28;20578;-81
2023/05/07 21:04:05;;;;;;;8.33;5.37;;;;;;;;;;10280848;28;20070;-82
2023/05/07 21:09:06;;;;;;;11.70;7.40;;;;;;;;;;10282922;28;20094;-82
2023/05/07 21:14:07;;;;;;;10.60;6.67;;;;;;;;;;10282742;28;20115;-82
2023/05/07 21:19:10;;;;;;;13.37;8.83;;;;;;;;;;10281467;28;20058;-82
2023/05/07 21:24:12;;;;;;;13.07;7.87;;;;;;;;;;10283593;28;20121;-82
2023/05/07 21:29:13;;;;;;;12.00;7.17;;;;;;;;;;10282074;28;20037;-81
2023/05/07 21:34:13;;;;;;;12.70;7.20;;;;;;;;;;10281201;28;20568;-82
2023/05/07 21:39:16;;;;;;;18.43;10.73;;;;;;;;;;10281514;28;20042;-82
2023/05/07 21:44:17;;;;;;;16.37;9.10;;;;;;;;;;10281813;28;20035;-82
2023/05/07 21:49:18;;;;;;;13.67;8.40;;;;;;;;;;10280692;28;20045;-82
2023/05/07 21:54:19;;;;;;;13.63;8.53;;;;;;;;;;10276902;28;20462;-82
2023/05/07 21:59:20;;;;;;;14.37;8.40;;;;;;;;;;10265501;28;20051;-82
2023/05/07 22:04:21;;;;;;;12.83;8.17;;;;;;;;;;10240806;28;20035;-82
2023/05/07 22:09:23;;;;;;;13.33;8.03;;;;;;;;;;10240922;29;20442;-83
2023/05/07 22:14:24;;;;;;;14.50;8.07;;;;;;;;;;10241355;28;20039;-82
2023/05/07 22:19:25;;;;;;;18.00;10.63;;;;;;;;;;10238598;29;20118;-82
2023/05/07 22:24:26;;;;;;;17.37;9.37;;;;;;;;;;10242332;28;20045;-82
2023/05/07 22:29:28;;;;;;;20.47;9.90;;;;;;;;;;10241358;28;20046;-82
2023/05/07 22:34:29;;;;;;;15.20;8.97;;;;;;;;;;10213667;29;20159;-82
2023/05/07 22:39:33;;;;;;;16.17;8.80;;;;;;;;;;10227909;28;20040;-82
2023/05/07 22:44:34;;;;;;;14.50;7.63;;;;;;;;;;10222928;28;20067;-82
2023/05/07 22:49:37;;;;;;;14.93;7.10;;;;;;;;;;10237851;28;20110;-82
2023/05/07 22:54:38;;;;;;;12.73;6.57;;;;;;;;;;10240484;29;20043;-82
2023/05/07 22:59:39;;;;;;;7.93;5.27;;;;;;;;;;10240164;28;20793;-83
2023/05/07 23:04:40;;;;;;;6.90;4.80;;;;;;;;;;10223012;29;20574;-81
2023/05/07 23:09:41;;;;;;;7.60;4.70;;;;;;;;;;10240583;28;20115;-82
2023/05/07 23:14:42;;;;;;;5.67;3.83;;;;;;;;;;10241236;28;20042;-82
2023/05/07 23:19:43;;;;;;;6.20;4.00;;;;;;;;;;10245131;28;20051;-82
2023/05/07 23:24:44;;;;;;;6.13;4.60;;;;;;;;;;10246226;28;20038;-82
2023/05/07 23:29:45;;;;;;;7.27;4.33;;;;;;;;;;10250758;28;20042;-83
2023/05/07 23:34:50;;;;;;;7.00;3.43;;;;;;;;;;10246725;29;20031;-83
2023/05/07 23:39:52;;;;;;;7.90;4.27;;;;;;;;;;10246332;28;20611;-82
2023/05/07 23:44:53;;;;;;;5.50;3.63;;;;;;;;;;10246001;29;20494;-82
2023/05/07 23:49:55;;;;;;;5.60;3.97;;;;;;;;;;10243715;29;20086;-82
2023/05/07 23:54:56;;;;;;;7.63;4.30;;;;;;;;;;10244647;28;20062;-82
